createdAt,value
2022-09-16T00:01:39.066Z,65.97
2022-09-16T00:04:11.014Z,65.53
2022-09-16T00:06:43.381Z,65.39
2022-09-16T00:09:15.370Z,65.31
2022-09-16T00:11:47.302Z,65.05
2022-09-16T00:14:19.227Z,65.36
2022-09-16T00:16:51.297Z,65.59
2022-09-16T00:19:23.214Z,65.83
2022-09-16T00:21:55.357Z,65.99
2022-09-16T00:24:28.410Z,65.82
2022-09-16T00:27:00.427Z,65.92
2022-09-16T00:29:33.327Z,65.63
2022-09-16T00:32:06.280Z,66.40
2022-09-16T00:34:38.291Z,66.48
2022-09-16T00:37:10.481Z,66.80
2022-09-16T00:39:42.477Z,67.11
2022-09-16T00:42:18.786Z,66.79
2022-09-16T00:45:03.053Z,66.70
2022-09-16T00:47:38.299Z,67.05
2022-09-16T00:50:15.840Z,67.07
2022-09-16T00:52:48.917Z,67.33
2022-09-16T00:55:25.183Z,67.45
2022-09-16T00:58:03.102Z,67.88
2022-09-16T01:00:35.301Z,67.53
2022-09-16T01:03:08.540Z,67.51
2022-09-16T01:05:41.474Z,67.26
2022-09-16T01:08:14.060Z,67.58
2022-09-16T01:10:46.091Z,67.60
2022-09-16T01:13:18.587Z,67.64
2022-09-16T01:15:56.856Z,68.23
2022-09-16T01:18:39.829Z,68.41
2022-09-16T01:21:22.711Z,68.17
2022-09-16T01:24:07.963Z,68.06
2022-09-16T01:26:58.309Z,68.61
2022-09-16T01:29:57.103Z,68.64
2022-09-16T01:32:34.322Z,68.62
2022-09-16T01:35:16.982Z,68.39
2022-09-16T01:37:58.181Z,67.84
2022-09-16T01:40:34.519Z,68.16
2022-09-16T01:43:15.042Z,68.46
2022-09-16T01:45:54.639Z,68.39
2022-09-16T01:48:34.525Z,68.46
2022-09-16T01:51:15.586Z,68.91
2022-09-16T01:53:55.692Z,68.80
2022-09-16T01:56:34.283Z,68.80
2022-09-16T01:59:10.574Z,69.01
2022-09-16T02:01:47.980Z,68.75
2022-09-16T02:04:24.427Z,69.17
2022-09-16T02:06:58.272Z,69.25
2022-09-16T02:09:35.167Z,69.39
2022-09-16T02:12:11.516Z,68.93
2022-09-16T02:14:46.660Z,69.03
2022-09-16T02:17:22.285Z,69.67
2022-09-16T02:20:01.446Z,69.91
2022-09-16T02:22:38.080Z,69.86
2022-09-16T02:25:12.816Z,69.51
2022-09-16T02:27:44.790Z,69.24
2022-09-16T02:30:19.935Z,69.42
2022-09-16T02:32:56.496Z,69.21
2022-09-16T02:35:31.518Z,69.98
2022-09-16T02:38:08.319Z,70.18
2022-09-16T02:40:48.103Z,69.91
2022-09-16T02:43:21.497Z,69.98
2022-09-16T02:46:01.096Z,69.89
2022-09-16T02:48:39.419Z,70.19
2022-09-16T02:51:19.575Z,69.78
2022-09-16T02:53:59.417Z,70.55
2022-09-16T02:56:35.986Z,70.65
2022-09-16T02:59:11.615Z,71.01
2022-09-16T03:01:45.599Z,70.96
2022-09-16T03:04:20.591Z,71.19
2022-09-16T03:06:52.930Z,70.94
2022-09-16T03:09:29.946Z,70.70
2022-09-16T03:12:20.708Z,71.12
2022-09-16T03:15:10.953Z,71.07
2022-09-16T03:18:16.915Z,71.19
2022-09-16T03:21:00.109Z,71.43
2022-09-16T03:23:44.817Z,71.75
2022-09-16T03:26:22.387Z,71.69
2022-09-16T03:29:05.051Z,71.58
2022-09-16T03:31:45.973Z,71.76
2022-09-16T03:34:24.606Z,72.67
2022-09-16T03:37:02.839Z,73.00
2022-09-16T03:39:35.953Z,72.62
2022-09-16T03:42:11.497Z,73.48
2022-09-16T03:44:43.698Z,72.90
2022-09-16T03:47:16.475Z,72.85
2022-09-16T03:49:48.937Z,72.47
2022-09-16T03:52:21.370Z,72.43
2022-09-16T03:54:53.289Z,72.31
2022-09-16T03:57:27.622Z,72.33
2022-09-16T03:59:59.735Z,71.93
2022-09-16T04:02:32.089Z,72.04
2022-09-16T04:05:04.433Z,72.40
2022-09-16T04:07:37.101Z,72.76
2022-09-16T04:10:12.535Z,72.68
2022-09-16T04:12:45.099Z,72.96
2022-09-16T04:15:17.206Z,72.78
2022-09-16T04:17:49.688Z,72.40
2022-09-16T04:20:21.894Z,72.97
2022-09-16T04:22:53.920Z,73.20
2022-09-16T04:25:25.869Z,73.58
2022-09-16T04:27:57.869Z,73.71
2022-09-16T04:30:30.448Z,73.17
2022-09-16T04:33:02.447Z,72.66
2022-09-16T04:35:34.667Z,73.05
2022-09-16T04:38:06.774Z,72.94
2022-09-16T04:40:40.274Z,73.12
2022-09-16T04:43:12.283Z,73.18
2022-09-16T04:45:44.247Z,73.26
2022-09-16T04:48:18.208Z,72.59
2022-09-16T04:50:50.763Z,72.61
2022-09-16T04:53:23.138Z,73.25
2022-09-16T04:55:55.067Z,73.77
2022-09-16T04:58:27.212Z,73.78
2022-09-16T05:01:04.317Z,73.64
2022-09-16T05:03:36.616Z,74.11
2022-09-16T05:06:11.348Z,73.79
2022-09-16T05:08:44.020Z,73.97
2022-09-16T05:11:18.093Z,73.31
2022-09-16T05:13:50.352Z,73.40
2022-09-16T05:16:24.530Z,73.93
2022-09-16T05:18:58.266Z,72.96
2022-09-16T05:21:33.118Z,72.98
2022-09-16T05:24:04.411Z,73.53
2022-09-16T05:26:38.151Z,73.47
2022-09-16T05:29:12.700Z,73.83
2022-09-16T05:31:47.689Z,73.88
2022-09-16T05:34:23.314Z,72.88
2022-09-16T05:36:55.820Z,72.74
2022-09-16T05:39:28.962Z,72.84
2022-09-16T05:42:03.388Z,72.71
2022-09-16T05:44:35.389Z,72.56
2022-09-16T05:47:07.698Z,72.63
2022-09-16T05:49:39.619Z,72.74
2022-09-16T05:52:11.683Z,73.74
2022-09-16T05:54:43.671Z,73.31
2022-09-16T05:57:15.733Z,73.54
2022-09-16T05:59:47.943Z,73.57
2022-09-16T06:02:20.477Z,73.07
2022-09-16T06:04:53.369Z,72.88
2022-09-16T06:07:25.261Z,73.19
2022-09-16T06:09:57.461Z,72.75
2022-09-16T06:12:29.942Z,72.84
2022-09-16T06:15:02.316Z,73.81
2022-09-16T06:17:34.312Z,73.96
2022-09-16T06:20:07.781Z,73.89
2022-09-16T06:22:40.108Z,73.61
2022-09-16T06:25:12.521Z,73.56
2022-09-16T06:27:44.578Z,74.36
2022-09-16T06:30:16.917Z,73.96
2022-09-16T06:32:48.881Z,73.63
2022-09-16T06:35:20.885Z,73.37
2022-09-16T06:37:52.869Z,73.63
2022-09-16T06:40:25.089Z,73.47
2022-09-16T06:43:00.183Z,73.18
2022-09-16T06:45:32.421Z,73.03
2022-09-16T06:48:04.899Z,72.66
2022-09-16T06:50:36.945Z,73.11
2022-09-16T06:53:09.207Z,72.91
2022-09-16T06:55:41.359Z,72.36
2022-09-16T06:58:13.584Z,72.25
2022-09-16T07:00:46.004Z,71.16
2022-09-16T07:03:18.244Z,71.48
2022-09-16T07:06:00.467Z,71.33
2022-09-16T07:08:33.777Z,70.47
2022-09-16T07:11:08.336Z,70.20
2022-09-16T07:13:41.268Z,70.07
2022-09-16T07:16:15.737Z,70.24
2022-09-16T07:18:48.551Z,69.62
2022-09-16T07:21:22.883Z,69.10
2022-09-16T07:23:58.234Z,69.56
2022-09-16T07:26:32.045Z,68.59
2022-09-16T07:29:07.917Z,67.11
2022-09-16T07:31:41.049Z,67.53
2022-09-16T07:34:13.914Z,67.25
2022-09-16T07:36:49.475Z,66.02
2022-09-16T07:39:22.441Z,66.52
2022-09-16T07:41:54.776Z,66.50
2022-09-16T07:44:28.642Z,65.68
2022-09-16T07:47:00.732Z,66.16
2022-09-16T07:49:33.013Z,65.85
2022-09-16T07:52:05.249Z,65.37
2022-09-16T07:54:37.501Z,66.09
2022-09-16T07:57:09.609Z,65.66
2022-09-16T07:59:41.610Z,65.44
2022-09-16T08:02:13.947Z,64.34
2022-09-16T08:04:46.543Z,63.96
2022-09-16T08:07:18.551Z,63.42
2022-09-16T08:09:53.035Z,63.96
2022-09-16T08:12:26.177Z,63.98
2022-09-16T08:14:58.332Z,63.40
2022-09-16T08:17:33.366Z,63.22
2022-09-16T08:20:07.310Z,63.41
2022-09-16T08:22:39.441Z,62.71
2022-09-16T08:25:11.917Z,61.60
2022-09-16T08:27:43.967Z,62.08
2022-09-16T08:30:15.999Z,62.02
2022-09-16T08:32:48.724Z,62.15
2022-09-16T08:35:20.709Z,60.41
2022-09-16T08:37:52.913Z,59.96
2022-09-16T08:40:26.895Z,60.16
2022-09-16T08:43:05.734Z,60.77
2022-09-16T08:45:45.297Z,60.89
2022-09-16T08:48:30.583Z,61.22
2022-09-16T08:51:03.989Z,60.46
2022-09-16T08:53:41.254Z,60.22
2022-09-16T08:56:19.751Z,59.30
2022-09-16T08:58:55.569Z,59.28
2022-09-16T09:01:35.694Z,59.02
2022-09-16T09:04:08.192Z,60.04
2022-09-16T09:06:59.838Z,59.26
2022-09-16T09:09:44.704Z,58.14
2022-09-16T09:12:23.370Z,57.52
2022-09-16T09:15:07.904Z,58.21
2022-09-16T09:17:51.335Z,58.16
2022-09-16T09:20:35.172Z,58.07
2022-09-16T09:23:25.597Z,58.45
2022-09-16T09:26:05.469Z,57.23
2022-09-16T09:29:12.835Z,56.60
2022-09-16T09:31:54.338Z,56.78
2022-09-16T09:34:47.945Z,56.90
2022-09-16T09:37:35.703Z,55.96
2022-09-16T09:40:16.759Z,55.44
2022-09-16T09:42:54.473Z,55.78
2022-09-16T09:45:31.035Z,55.95
2022-09-16T09:48:12.094Z,56.32
2022-09-16T09:50:46.290Z,56.56
2022-09-16T09:53:26.129Z,56.85
2022-09-16T09:56:08.251Z,57.33
2022-09-16T09:58:45.331Z,56.51
2022-09-16T10:01:19.950Z,55.42
2022-09-16T10:03:56.263Z,54.60
2022-09-16T10:06:34.385Z,55.31
2022-09-16T10:09:06.807Z,54.84
2022-09-16T10:11:49.129Z,53.94
2022-09-16T10:14:32.639Z,53.91
2022-09-16T10:17:06.937Z,53.10
2022-09-16T10:19:51.452Z,52.58
2022-09-16T10:22:28.200Z,53.15
2022-09-16T10:25:02.015Z,53.40
2022-09-16T10:27:36.781Z,53.63
2022-09-16T10:30:19.114Z,53.76
2022-09-16T10:32:56.647Z,52.72
2022-09-16T10:35:30.724Z,52.94
2022-09-16T10:38:07.134Z,52.95
2022-09-16T10:40:39.495Z,53.20
2022-09-16T10:43:17.559Z,52.25
2022-09-16T10:45:52.814Z,52.53
2022-09-16T10:48:30.976Z,52.30
2022-09-16T10:51:05.014Z,52.54
2022-09-16T10:53:40.884Z,52.23
2022-09-16T10:56:22.139Z,50.82
2022-09-16T10:59:07.161Z,50.15
2022-09-16T11:01:51.391Z,51.68
2022-09-16T11:05:01.787Z,51.64
2022-09-16T11:07:45.004Z,52.44
2022-09-16T11:10:25.355Z,51.96
2022-09-16T11:13:24.729Z,51.29
2022-09-16T11:16:13.113Z,51.66
2022-09-16T11:18:55.337Z,51.64
2022-09-16T11:21:44.889Z,51.43
2022-09-16T11:24:52.191Z,49.70
2022-09-16T11:27:39.160Z,49.99
2022-09-16T11:30:17.171Z,49.54
2022-09-16T11:33:22.446Z,49.58
2022-09-16T11:36:24.214Z,48.96
2022-09-16T11:39:05.830Z,49.76
2022-09-16T11:41:42.700Z,49.87
2022-09-16T11:44:31.391Z,52.50
2022-09-16T11:47:18.101Z,53.60
2022-09-16T11:50:05.041Z,53.50
2022-09-16T11:52:51.918Z,53.30
2022-09-16T11:55:37.391Z,54.13
2022-09-16T11:58:21.495Z,53.86
2022-09-16T12:00:57.260Z,53.29
2022-09-16T12:03:37.394Z,50.92
2022-09-16T12:06:15.703Z,52.28
2022-09-16T12:09:02.624Z,51.17
2022-09-16T12:11:40.794Z,50.86
2022-09-16T12:14:19.540Z,53.58
2022-09-16T12:16:57.240Z,56.44
2022-09-16T12:19:35.036Z,55.42
2022-09-16T12:22:11.350Z,57.58
2022-09-16T12:24:48.428Z,57.71
2022-09-16T12:27:34.881Z,56.42
2022-09-16T12:30:15.116Z,55.98
2022-09-16T12:32:58.246Z,56.41
2022-09-16T12:35:35.608Z,56.42
2022-09-16T12:38:13.554Z,55.92
2022-09-16T12:41:04.231Z,54.93
2022-09-16T12:43:52.405Z,53.89
2022-09-16T12:47:04.830Z,54.15
2022-09-16T12:49:58.356Z,52.91
2022-09-16T12:52:42.257Z,52.38
2022-09-16T12:55:52.743Z,50.57
2022-09-16T12:58:48.972Z,49.12
2022-09-16T13:01:26.187Z,49.40
2022-09-16T13:04:03.304Z,49.39
2022-09-16T13:06:38.737Z,50.19
2022-09-16T13:09:22.616Z,49.39
2022-09-16T13:14:55.323Z,51.56
2022-09-16T13:17:35.287Z,51.37
2022-09-16T13:20:18.338Z,50.80
2022-09-16T13:23:00.499Z,49.84
2022-09-16T13:25:36.124Z,50.80
2022-09-16T13:28:26.586Z,50.46
2022-09-16T13:31:10.062Z,51.56
2022-09-16T13:33:44.484Z,52.44
2022-09-16T13:36:31.095Z,53.09
2022-09-16T13:39:05.247Z,52.91
2022-09-16T13:41:41.500Z,53.42
2022-09-16T13:44:41.765Z,53.68
2022-09-16T13:47:31.871Z,54.51
2022-09-16T13:50:13.620Z,55.15
2022-09-16T13:52:46.486Z,53.77
2022-09-16T13:55:25.246Z,52.82
2022-09-16T13:58:04.166Z,51.32
2022-09-16T14:00:45.788Z,51.16
2022-09-16T14:03:38.303Z,51.72
2022-09-16T14:06:42.261Z,51.93
2022-09-16T14:09:29.544Z,51.45
2022-09-16T14:12:10.794Z,51.35
2022-09-16T14:14:47.263Z,51.52
2022-09-16T14:17:24.495Z,52.04
2022-09-16T14:20:03.407Z,52.44
2022-09-16T14:22:36.739Z,53.69
2022-09-16T14:25:32.598Z,54.00
2022-09-16T14:28:18.940Z,54.41
2022-09-16T14:30:56.256Z,53.97
2022-09-16T14:33:33.830Z,52.36
2022-09-16T14:36:13.878Z,52.24
2022-09-16T14:38:49.297Z,52.00
2022-09-16T14:41:28.249Z,51.42
2022-09-16T14:44:08.338Z,51.09
2022-09-16T14:46:45.438Z,50.64
2022-09-16T14:49:18.591Z,50.65
2022-09-16T14:51:53.358Z,51.22
2022-09-16T14:54:24.453Z,50.79
2022-09-16T14:57:05.305Z,51.45
2022-09-16T14:59:40.036Z,51.30
2022-09-16T15:02:21.803Z,51.28
2022-09-16T15:04:57.931Z,51.62
2022-09-16T15:07:34.333Z,52.00
2022-09-16T15:10:15.660Z,52.24
2022-09-16T15:12:53.068Z,52.04
2022-09-16T15:15:28.085Z,51.38
2022-09-16T15:18:03.312Z,51.77
2022-09-16T15:20:40.120Z,51.96
2022-09-16T15:23:24.120Z,52.29
2022-09-16T15:25:59.976Z,51.96
2022-09-16T15:28:32.456Z,52.64
2022-09-16T15:31:05.815Z,52.93
2022-09-16T15:33:42.813Z,52.80
2022-09-16T15:36:35.770Z,53.09
2022-09-16T15:39:23.527Z,52.86
2022-09-16T15:42:12.249Z,52.96
2022-09-16T15:44:51.193Z,53.50
2022-09-16T15:47:25.859Z,53.90
2022-09-16T15:49:59.609Z,53.45
2022-09-16T15:52:36.163Z,53.54
2022-09-16T15:55:09.584Z,53.32
2022-09-16T15:57:44.839Z,53.35
2022-09-16T16:00:17.579Z,53.28
2022-09-16T16:02:55.941Z,53.01
2022-09-16T16:05:30.676Z,52.99
2022-09-16T16:08:06.172Z,53.39
2022-09-16T16:10:42.130Z,53.51
2022-09-16T16:13:14.673Z,53.84
2022-09-16T16:15:46.979Z,53.80
2022-09-16T16:18:19.933Z,54.35
2022-09-16T16:20:51.992Z,54.49
2022-09-16T16:23:24.050Z,54.50
2022-09-16T16:25:56.384Z,54.15
2022-09-16T16:28:28.382Z,54.43
2022-09-16T16:31:13.507Z,54.56
2022-09-16T16:33:48.386Z,54.31
2022-09-16T16:36:22.335Z,54.65
2022-09-16T16:38:54.582Z,54.45
2022-09-16T16:41:27.101Z,54.86
2022-09-16T16:43:59.122Z,54.58
2022-09-16T16:46:31.968Z,54.67
2022-09-16T16:49:04.965Z,54.59
2022-09-16T16:51:36.999Z,54.97
2022-09-16T16:54:09.239Z,55.08
2022-09-16T16:56:41.703Z,54.99
2022-09-16T16:59:14.015Z,55.21
2022-09-16T17:01:48.960Z,55.54
2022-09-16T17:04:21.667Z,55.07
2022-09-16T17:07:14.470Z,55.37
2022-09-16T17:09:46.466Z,55.65
2022-09-16T17:12:18.811Z,55.88
2022-09-16T17:14:51.305Z,56.42
2022-09-16T17:17:26.504Z,56.86
2022-09-16T17:20:01.543Z,57.07
2022-09-16T17:22:34.025Z,58.26
2022-09-16T17:25:06.645Z,58.26
2022-09-16T17:27:38.974Z,57.99
2022-09-16T17:30:13.247Z,57.44
2022-09-16T17:32:46.666Z,57.21
2022-09-16T17:35:19.557Z,57.00
2022-09-16T17:37:51.926Z,56.87
2022-09-16T17:40:24.362Z,56.60
2022-09-16T17:42:56.503Z,56.80
2022-09-16T17:45:28.713Z,56.60
2022-09-16T17:48:01.185Z,57.12
2022-09-16T17:50:33.948Z,57.44
2022-09-16T17:53:06.147Z,57.68
2022-09-16T17:55:38.227Z,58.39
2022-09-16T17:58:10.302Z,59.37
2022-09-16T18:00:42.744Z,59.09
2022-09-16T18:03:15.589Z,59.05
2022-09-16T18:05:49.007Z,59.24
2022-09-16T18:08:21.307Z,60.21
2022-09-16T18:10:56.008Z,60.53
2022-09-16T18:13:28.152Z,60.65
2022-09-16T18:16:04.726Z,61.47
2022-09-16T18:18:37.863Z,62.12
2022-09-16T18:21:14.359Z,62.81
2022-09-16T18:23:46.766Z,62.78
2022-09-16T18:26:19.974Z,62.60
2022-09-16T18:29:11.791Z,62.98
2022-09-16T18:31:48.180Z,63.49
2022-09-16T18:34:21.336Z,63.35
2022-09-16T18:36:54.370Z,63.85
2022-09-16T18:39:27.207Z,63.46
2022-09-16T18:41:59.419Z,63.91
2022-09-16T18:44:32.009Z,65.31
2022-09-16T18:47:03.992Z,65.08
2022-09-16T18:49:36.643Z,65.00
2022-09-16T18:52:08.871Z,65.76
2022-09-16T18:54:41.599Z,65.43
2022-09-16T18:57:14.067Z,66.18
2022-09-16T18:59:47.139Z,66.75
2022-09-16T19:02:19.331Z,66.14
2022-09-16T19:04:51.491Z,67.39
2022-09-16T19:07:28.011Z,67.37
2022-09-16T19:10:00.712Z,67.77
2022-09-16T19:12:39.217Z,68.14
2022-09-16T19:15:13.435Z,68.46
2022-09-16T19:17:48.489Z,68.91
2022-09-16T19:20:20.685Z,67.97
2022-09-16T19:22:52.888Z,68.16
2022-09-16T19:25:25.748Z,68.67
2022-09-16T19:27:57.837Z,68.06
2022-09-16T19:30:30.041Z,68.79
2022-09-16T19:33:02.130Z,69.03
2022-09-16T19:35:34.847Z,68.93
2022-09-16T19:38:07.418Z,69.24
2022-09-16T19:40:39.688Z,68.84
2022-09-16T19:43:12.122Z,69.33
2022-09-16T19:45:44.699Z,69.87
2022-09-16T19:48:16.931Z,69.64
2022-09-16T19:50:54.630Z,69.14
2022-09-16T19:53:29.263Z,69.22
2022-09-16T19:56:04.054Z,69.29
2022-09-16T19:58:38.427Z,69.22
2022-09-16T20:01:13.112Z,69.16
2022-09-16T20:03:45.934Z,68.82
2022-09-16T20:06:20.281Z,68.96
2022-09-16T20:08:58.791Z,68.51
2022-09-16T20:11:32.847Z,68.42
2022-09-16T20:14:07.088Z,68.69
2022-09-16T20:16:40.772Z,68.86
2022-09-16T20:19:17.601Z,68.23
2022-09-16T20:21:49.903Z,68.47
2022-09-16T20:24:23.881Z,68.87
2022-09-16T20:26:58.264Z,68.67
2022-09-16T20:29:31.905Z,68.42
2022-09-16T20:32:04.620Z,68.34
2022-09-16T20:34:36.838Z,67.63
2022-09-16T20:37:09.166Z,67.84
2022-09-16T20:39:41.848Z,67.80
2022-09-16T20:42:14.595Z,67.49
2022-09-16T20:44:49.446Z,66.90
2022-09-16T20:47:21.854Z,66.87
2022-09-16T20:49:54.155Z,67.22
2022-09-16T20:52:26.905Z,67.20
2022-09-16T20:55:05.076Z,67.24
2022-09-16T20:57:37.463Z,67.01
2022-09-16T21:00:13.003Z,66.88
2022-09-16T21:02:45.285Z,67.17
2022-09-16T21:05:18.690Z,67.30
2022-09-16T21:07:51.095Z,67.20
2022-09-16T21:10:24.270Z,67.41
2022-09-16T21:12:58.164Z,67.47
2022-09-16T21:15:31.660Z,67.23
2022-09-16T21:18:03.620Z,67.13
2022-09-16T21:20:38.088Z,67.16
2022-09-16T21:27:57.626Z,66.91
2022-09-16T21:30:30.689Z,66.49
2022-09-16T21:33:02.702Z,66.47
2022-09-16T21:35:40.310Z,65.98
2022-09-16T21:38:18.828Z,65.96
2022-09-16T21:48:21.222Z,65.60
2022-09-16T21:50:54.751Z,65.28
2022-09-16T21:53:28.512Z,65.41
2022-09-16T21:56:04.893Z,65.33
2022-09-16T21:58:37.757Z,65.17
2022-09-16T22:01:12.308Z,65.06
2022-09-16T22:03:47.482Z,65.07
2022-09-16T22:06:22.389Z,64.97
2022-09-16T22:08:56.962Z,65.43
2022-09-16T22:11:30.994Z,65.39
2022-09-16T22:14:04.823Z,65.26
2022-09-16T22:16:38.632Z,65.30
2022-09-16T22:19:12.344Z,65.27
2022-09-16T22:21:46.188Z,65.45
2022-09-16T22:24:20.678Z,65.72
2022-09-16T22:26:55.380Z,65.66
2022-09-16T22:29:27.651Z,65.94
2022-09-16T22:32:00.861Z,66.29
2022-09-16T22:34:35.566Z,66.32
2022-09-16T22:37:09.508Z,65.88
2022-09-16T22:39:42.650Z,66.17
2022-09-16T22:42:15.179Z,65.98
2022-09-16T22:44:51.509Z,66.19
2022-09-16T22:47:28.496Z,66.26
2022-09-16T22:50:02.092Z,66.19
2022-09-16T22:52:35.303Z,66.10
2022-09-16T22:55:10.385Z,65.84
2022-09-16T22:57:43.629Z,65.90
2022-09-16T23:00:16.936Z,66.04
2022-09-16T23:02:48.912Z,66.10
2022-09-16T23:05:20.822Z,66.28
2022-09-16T23:10:53.115Z,66.65
2022-09-16T23:13:27.111Z,66.53
2022-09-16T23:16:04.065Z,66.64
2022-09-16T23:18:37.331Z,66.96
2022-09-16T23:21:11.358Z,67.53
2022-09-16T23:23:45.239Z,68.05
2022-09-16T23:26:19.002Z,68.32
2022-09-16T23:28:54.073Z,67.93
2022-09-16T23:31:28.192Z,68.72
2022-09-16T23:34:00.782Z,68.75
2022-09-16T23:36:34.793Z,68.73
2022-09-16T23:39:07.916Z,68.74
2022-09-16T23:41:41.412Z,68.48
2022-09-16T23:44:15.764Z,68.74
2022-09-16T23:46:47.983Z,68.59
2022-09-16T23:49:20.925Z,68.38
2022-09-16T23:51:53.012Z,68.33
2022-09-16T23:54:25.002Z,68.36
2022-09-16T23:56:57.398Z,68.77
2022-09-16T23:59:29.341Z,68.75
